sensor_id;sensor_type;location;lat;lon;timestamp;pressure;altitude;pressure_sealevel;temperature;humidity
49585;BME280;35491;49.142;9.210;2024-03-22T00:01:55;100597.47;;;13.09;58.58
49585;BME280;35491;49.142;9.210;2024-03-22T00:03:56;100593.56;;;13.04;58.86
49585;BME280;35491;49.142;9.210;2024-03-22T00:05:57;100591.28;;;13.09;58.71
49585;BME280;35491;49.142;9.210;2024-03-22T00:07:57;100601.88;;;13.10;58.40
49585;BME280;35491;49.142;9.210;2024-03-22T00:09:58;100596.81;;;13.07;58.23
49585;BME280;35491;49.142;9.210;2024-03-22T00:11:58;100592.44;;;13.06;57.98
49585;BME280;35491;49.142;9.210;2024-03-22T00:13:58;100588.19;;;13.04;58.22
49585;BME280;35491;49.142;9.210;2024-03-22T00:15:59;100592.28;;;13.08;57.95
49585;BME280;35491;49.142;9.210;2024-03-22T00:17:59;100587.16;;;13.15;58.01
49585;BME280;35491;49.142;9.210;2024-03-22T00:20:00;100583.19;;;13.19;57.71
49585;BME280;35491;49.142;9.210;2024-03-22T00:22:00;100577.34;;;13.23;57.56
49585;BME280;35491;49.142;9.210;2024-03-22T00:24:01;100572.59;;;13.17;57.69
49585;BME280;35491;49.142;9.210;2024-03-22T00:26:01;100567.94;;;12.82;58.48
49585;BME280;35491;49.142;9.210;2024-03-22T00:28:01;100571.13;;;12.57;59.35
49585;BME280;35491;49.142;9.210;2024-03-22T00:30:02;100570.28;;;12.47;59.76
49585;BME280;35491;49.142;9.210;2024-03-22T00:32:02;100563.25;;;12.36;60.19
49585;BME280;35491;49.142;9.210;2024-03-22T00:34:03;100560.19;;;12.31;60.00
49585;BME280;35491;49.142;9.210;2024-03-22T00:36:03;100554.63;;;12.42;60.13
49585;BME280;35491;49.142;9.210;2024-03-22T00:38:03;100561.88;;;12.32;59.99
49585;BME280;35491;49.142;9.210;2024-03-22T00:40:04;100554.50;;;12.44;59.95
49585;BME280;35491;49.142;9.210;2024-03-22T00:42:05;100549.47;;;12.31;60.20
49585;BME280;35491;49.142;9.210;2024-03-22T00:44:05;100546.94;;;12.20;60.29
49585;BME280;35491;49.142;9.210;2024-03-22T00:46:06;100552.56;;;12.16;60.59
49585;BME280;35491;49.142;9.210;2024-03-22T00:48:07;100542.41;;;12.30;60.49
49585;BME280;35491;49.142;9.210;2024-03-22T00:50:08;100551.44;;;12.29;60.18
49585;BME280;35491;49.142;9.210;2024-03-22T00:52:08;100538.47;;;12.24;60.27
49585;BME280;35491;49.142;9.210;2024-03-22T00:54:08;100542.72;;;12.17;60.21
49585;BME280;35491;49.142;9.210;2024-03-22T00:56:10;100536.50;;;12.07;60.51
49585;BME280;35491;49.142;9.210;2024-03-22T00:58:10;100529.59;;;11.84;60.96
49585;BME280;35491;49.142;9.210;2024-03-22T01:00:10;100533.66;;;11.79;61.28
49585;BME280;35491;49.142;9.210;2024-03-22T01:02:11;100532.53;;;11.71;61.22
49585;BME280;35491;49.142;9.210;2024-03-22T01:04:12;100530.00;;;11.60;61.60
49585;BME280;35491;49.142;9.210;2024-03-22T01:06:13;100532.38;;;11.53;61.72
49585;BME280;35491;49.142;9.210;2024-03-22T01:08:13;100533.63;;;11.49;61.79
49585;BME280;35491;49.142;9.210;2024-03-22T01:10:14;100518.41;;;11.30;61.66
49585;BME280;35491;49.142;9.210;2024-03-22T01:12:14;100518.50;;;11.19;61.96
49585;BME280;35491;49.142;9.210;2024-03-22T01:14:14;100523.13;;;11.07;62.31
49585;BME280;35491;49.142;9.210;2024-03-22T01:16:15;100519.41;;;10.88;62.82
49585;BME280;35491;49.142;9.210;2024-03-22T01:18:16;100521.06;;;10.80;62.97
49585;BME280;35491;49.142;9.210;2024-03-22T01:20:17;100522.50;;;10.84;63.12
49585;BME280;35491;49.142;9.210;2024-03-22T01:22:17;100511.34;;;10.79;63.05
49585;BME280;35491;49.142;9.210;2024-03-22T01:24:18;100517.97;;;10.84;63.36
49585;BME280;35491;49.142;9.210;2024-03-22T01:26:18;100518.56;;;10.88;63.04
49585;BME280;35491;49.142;9.210;2024-03-22T01:28:18;100518.72;;;10.96;62.83
49585;BME280;35491;49.142;9.210;2024-03-22T01:30:19;100523.22;;;10.86;62.99
49585;BME280;35491;49.142;9.210;2024-03-22T01:32:19;100516.34;;;10.93;62.89
49585;BME280;35491;49.142;9.210;2024-03-22T01:34:19;100504.25;;;10.99;62.73
49585;BME280;35491;49.142;9.210;2024-03-22T01:36:20;100509.88;;;11.05;62.54
49585;BME280;35491;49.142;9.210;2024-03-22T01:38:20;100510.69;;;10.96;62.86
49585;BME280;35491;49.142;9.210;2024-03-22T01:40:20;100502.25;;;10.91;62.70
49585;BME280;35491;49.142;9.210;2024-03-22T01:42:21;100507.03;;;10.97;62.68
49585;BME280;35491;49.142;9.210;2024-03-22T01:44:27;100504.34;;;10.97;62.65
49585;BME280;35491;49.142;9.210;2024-03-22T01:46:29;100506.06;;;10.98;62.84
49585;BME280;35491;49.142;9.210;2024-03-22T01:48:29;100504.41;;;11.07;62.35
49585;BME280;35491;49.142;9.210;2024-03-22T01:50:30;100496.94;;;11.20;61.93
49585;BME280;35491;49.142;9.210;2024-03-22T01:52:30;100501.59;;;11.08;62.16
49585;BME280;35491;49.142;9.210;2024-03-22T01:54:30;100500.41;;;10.91;62.88
49585;BME280;35491;49.142;9.210;2024-03-22T01:56:31;100504.09;;;10.90;63.06
49585;BME280;35491;49.142;9.210;2024-03-22T01:58:31;100494.47;;;10.78;63.47
49585;BME280;35491;49.142;9.210;2024-03-22T02:00:32;100488.13;;;10.79;63.46
49585;BME280;35491;49.142;9.210;2024-03-22T02:02:32;100488.22;;;10.68;63.81
49585;BME280;35491;49.142;9.210;2024-03-22T02:04:32;100482.16;;;10.66;63.99
49585;BME280;35491;49.142;9.210;2024-03-22T02:06:33;100486.94;;;10.62;63.94
49585;BME280;35491;49.142;9.210;2024-03-22T02:08:33;100480.19;;;10.58;64.04
49585;BME280;35491;49.142;9.210;2024-03-22T02:10:33;100484.41;;;10.39;64.44
49585;BME280;35491;49.142;9.210;2024-03-22T02:12:34;100482.84;;;10.37;64.78
49585;BME280;35491;49.142;9.210;2024-03-22T02:14:34;100484.56;;;10.38;64.95
49585;BME280;35491;49.142;9.210;2024-03-22T02:16:34;100487.59;;;10.33;64.62
49585;BME280;35491;49.142;9.210;2024-03-22T02:18:35;100478.47;;;10.36;64.67
49585;BME280;35491;49.142;9.210;2024-03-22T02:20:35;100474.44;;;10.41;64.53
49585;BME280;35491;49.142;9.210;2024-03-22T02:22:35;100474.50;;;10.30;64.68
49585;BME280;35491;49.142;9.210;2024-03-22T02:24:36;100471.78;;;10.20;65.00
49585;BME280;35491;49.142;9.210;2024-03-22T02:26:36;100470.63;;;10.13;65.31
49585;BME280;35491;49.142;9.210;2024-03-22T02:28:36;100471.22;;;10.17;65.03
49585;BME280;35491;49.142;9.210;2024-03-22T02:30:37;100480.84;;;10.08;65.42
49585;BME280;35491;49.142;9.210;2024-03-22T02:32:37;100475.63;;;10.06;65.35
49585;BME280;35491;49.142;9.210;2024-03-22T02:34:39;100474.41;;;10.10;65.15
49585;BME280;35491;49.142;9.210;2024-03-22T02:36:39;100473.41;;;10.11;65.02
49585;BME280;35491;49.142;9.210;2024-03-22T02:38:40;100471.94;;;10.19;64.73
49585;BME280;35491;49.142;9.210;2024-03-22T02:40:40;100464.09;;;10.27;64.57
49585;BME280;35491;49.142;9.210;2024-03-22T02:42:40;100466.19;;;10.23;64.58
49585;BME280;35491;49.142;9.210;2024-03-22T02:44:41;100466.22;;;10.33;64.35
49585;BME280;35491;49.142;9.210;2024-03-22T02:46:42;100468.13;;;10.21;64.34
49585;BME280;35491;49.142;9.210;2024-03-22T02:48:43;100460.66;;;10.15;64.74
49585;BME280;35491;49.142;9.210;2024-03-22T02:50:43;100464.16;;;10.15;64.96
49585;BME280;35491;49.142;9.210;2024-03-22T02:52:43;100459.53;;;10.18;64.86
49585;BME280;35491;49.142;9.210;2024-03-22T02:54:44;100458.81;;;10.15;65.04
49585;BME280;35491;49.142;9.210;2024-03-22T02:56:44;100459.38;;;10.09;65.00
49585;BME280;35491;49.142;9.210;2024-03-22T02:58:45;100455.00;;;10.08;64.96
49585;BME280;35491;49.142;9.210;2024-03-22T03:00:46;100464.69;;;10.09;65.00
49585;BME280;35491;49.142;9.210;2024-03-22T03:02:46;100466.91;;;10.04;65.13
49585;BME280;35491;49.142;9.210;2024-03-22T03:04:47;100454.31;;;10.16;64.85
49585;BME280;35491;49.142;9.210;2024-03-22T03:06:47;100453.66;;;10.24;64.40
49585;BME280;35491;49.142;9.210;2024-03-22T03:08:47;100450.72;;;10.27;64.32
49585;BME280;35491;49.142;9.210;2024-03-22T03:10:48;100440.25;;;10.14;64.52
49585;BME280;35491;49.142;9.210;2024-03-22T03:12:48;100446.53;;;10.34;64.15
49585;BME280;35491;49.142;9.210;2024-03-22T03:14:48;100449.63;;;10.29;64.22
49585;BME280;35491;49.142;9.210;2024-03-22T03:16:49;100445.81;;;10.32;64.33
49585;BME280;35491;49.142;9.210;2024-03-22T03:18:49;100448.06;;;10.27;64.42
49585;BME280;35491;49.142;9.210;2024-03-22T03:20:49;100452.13;;;10.31;64.49
49585;BME280;35491;49.142;9.210;2024-03-22T03:22:49;100445.38;;;10.27;64.40
49585;BME280;35491;49.142;9.210;2024-03-22T03:24:50;100442.56;;;10.28;64.54
49585;BME280;35491;49.142;9.210;2024-03-22T03:26:50;100444.06;;;10.42;64.13
49585;BME280;35491;49.142;9.210;2024-03-22T03:28:50;100441.31;;;10.54;63.81
49585;BME280;35491;49.142;9.210;2024-03-22T03:30:51;100444.69;;;10.56;64.27
49585;BME280;35491;49.142;9.210;2024-03-22T03:32:51;100437.41;;;10.68;64.26
49585;BME280;35491;49.142;9.210;2024-03-22T03:34:51;100440.25;;;10.66;64.39
49585;BME280;35491;49.142;9.210;2024-03-22T03:36:52;100445.59;;;10.66;64.22
49585;BME280;35491;49.142;9.210;2024-03-22T03:38:52;100441.06;;;10.67;64.34
49585;BME280;35491;49.142;9.210;2024-03-22T03:40:52;100442.19;;;10.64;63.99
49585;BME280;35491;49.142;9.210;2024-03-22T03:42:53;100437.66;;;10.55;64.73
49585;BME280;35491;49.142;9.210;2024-03-22T03:44:53;100433.31;;;10.64;64.21
49585;BME280;35491;49.142;9.210;2024-03-22T03:46:54;100437.16;;;10.71;63.93
49585;BME280;35491;49.142;9.210;2024-03-22T03:48:54;100439.53;;;10.74;63.51
49585;BME280;35491;49.142;9.210;2024-03-22T03:50:56;100433.50;;;10.72;63.42
49585;BME280;35491;49.142;9.210;2024-03-22T03:52:59;100429.09;;;10.61;63.94
49585;BME280;35491;49.142;9.210;2024-03-22T03:54:59;100427.56;;;10.68;64.07
49585;BME280;35491;49.142;9.210;2024-03-22T03:57:00;100430.22;;;10.58;63.98
49585;BME280;35491;49.142;9.210;2024-03-22T03:59:00;100424.81;;;10.49;64.62
49585;BME280;35491;49.142;9.210;2024-03-22T04:01:04;100419.47;;;10.49;64.41
49585;BME280;35491;49.142;9.210;2024-03-22T04:03:05;100419.47;;;10.49;64.13
49585;BME280;35491;49.142;9.210;2024-03-22T04:05:05;100417.41;;;10.31;64.35
49585;BME280;35491;49.142;9.210;2024-03-22T04:07:06;100425.41;;;10.31;64.15
49585;BME280;35491;49.142;9.210;2024-03-22T04:09:06;100418.63;;;10.38;64.27
49585;BME280;35491;49.142;9.210;2024-03-22T04:11:07;100411.16;;;10.42;63.72
49585;BME280;35491;49.142;9.210;2024-03-22T04:13:07;100425.50;;;10.41;63.10
49585;BME280;35491;49.142;9.210;2024-03-22T04:15:09;100428.91;;;10.43;63.93
49585;BME280;35491;49.142;9.210;2024-03-22T04:17:10;100432.25;;;10.45;63.54
49585;BME280;35491;49.142;9.210;2024-03-22T04:19:10;100431.16;;;10.48;63.56
49585;BME280;35491;49.142;9.210;2024-03-22T04:21:10;100423.31;;;10.56;63.43
49585;BME280;35491;49.142;9.210;2024-03-22T04:23:11;100429.50;;;10.56;63.43
49585;BME280;35491;49.142;9.210;2024-03-22T04:25:11;100430.63;;;10.54;63.36
49585;BME280;35491;49.142;9.210;2024-03-22T04:27:11;100436.41;;;10.59;63.44
49585;BME280;35491;49.142;9.210;2024-03-22T04:29:11;100437.66;;;10.55;63.26
49585;BME280;35491;49.142;9.210;2024-03-22T04:31:12;100439.19;;;10.48;63.21
49585;BME280;35491;49.142;9.210;2024-03-22T04:33:12;100441.72;;;10.49;63.44
49585;BME280;35491;49.142;9.210;2024-03-22T04:35:13;100443.25;;;10.42;63.33
49585;BME280;35491;49.142;9.210;2024-03-22T04:37:13;100439.44;;;10.44;63.37
49585;BME280;35491;49.142;9.210;2024-03-22T04:39:13;100439.44;;;10.44;63.43
49585;BME280;35491;49.142;9.210;2024-03-22T04:41:14;100446.03;;;10.40;63.80
49585;BME280;35491;49.142;9.210;2024-03-22T04:43:14;100445.78;;;10.43;63.54
49585;BME280;35491;49.142;9.210;2024-03-22T04:45:16;100451.84;;;10.45;63.61
49585;BME280;35491;49.142;9.210;2024-03-22T04:47:16;100440.16;;;10.47;63.55
49585;BME280;35491;49.142;9.210;2024-03-22T04:49:17;100445.53;;;10.56;63.28
49585;BME280;35491;49.142;9.210;2024-03-22T04:51:17;100437.66;;;10.55;63.18
49585;BME280;35491;49.142;9.210;2024-03-22T04:53:18;100431.34;;;10.56;63.59
49585;BME280;35491;49.142;9.210;2024-03-22T04:55:19;100443.13;;;10.22;63.95
49585;BME280;35491;49.142;9.210;2024-03-22T04:57:19;100434.78;;;10.15;64.59
49585;BME280;35491;49.142;9.210;2024-03-22T04:59:20;100434.34;;;10.10;64.93
49585;BME280;35491;49.142;9.210;2024-03-22T05:01:20;100425.72;;;10.07;64.88
49585;BME280;35491;49.142;9.210;2024-03-22T05:03:20;100420.69;;;10.13;64.60
49585;BME280;35491;49.142;9.210;2024-03-22T05:05:21;100423.28;;;10.25;64.09
49585;BME280;35491;49.142;9.210;2024-03-22T05:07:22;100421.59;;;10.24;64.27
49585;BME280;35491;49.142;9.210;2024-03-22T05:09:23;100422.06;;;10.29;64.37
49585;BME280;35491;49.142;9.210;2024-03-22T05:11:23;100417.59;;;10.39;63.75
49585;BME280;35491;49.142;9.210;2024-03-22T05:13:24;100417.09;;;10.45;63.56
49585;BME280;35491;49.142;9.210;2024-03-22T05:15:25;100416.38;;;10.53;63.40
49585;BME280;35491;49.142;9.210;2024-03-22T05:17:25;100408.00;;;10.58;63.15
49585;BME280;35491;49.142;9.210;2024-03-22T05:19:26;100416.13;;;10.47;63.61
49585;BME280;35491;49.142;9.210;2024-03-22T05:21:26;100415.56;;;10.53;63.24
49585;BME280;35491;49.142;9.210;2024-03-22T05:23:26;100408.09;;;10.47;63.69
49585;BME280;35491;49.142;9.210;2024-03-22T05:25:27;100410.88;;;10.45;63.81
49585;BME280;35491;49.142;9.210;2024-03-22T05:27:27;100408.09;;;10.47;64.04
49585;BME280;35491;49.142;9.210;2024-03-22T05:29:28;100403.78;;;10.65;63.37
49585;BME280;35491;49.142;9.210;2024-03-22T05:31:28;100403.34;;;10.60;63.43
49585;BME280;35491;49.142;9.210;2024-03-22T05:33:29;100394.06;;;10.64;63.46
49585;BME280;35491;49.142;9.210;2024-03-22T05:35:29;100398.34;;;10.76;63.03
49585;BME280;35491;49.142;9.210;2024-03-22T05:37:29;100401.97;;;10.75;63.09
49585;BME280;35491;49.142;9.210;2024-03-22T05:39:30;100392.41;;;10.83;62.94
49585;BME280;35491;49.142;9.210;2024-03-22T05:41:30;100389.91;;;10.81;62.64
49585;BME280;35491;49.142;9.210;2024-03-22T05:43:31;100392.97;;;10.76;62.63
49585;BME280;35491;49.142;9.210;2024-03-22T05:45:31;100383.97;;;10.87;62.67
49585;BME280;35491;49.142;9.210;2024-03-22T05:47:31;100382.28;;;10.96;62.22
49585;BME280;35491;49.142;9.210;2024-03-22T05:49:32;100393.00;;;10.86;62.58
49585;BME280;35491;49.142;9.210;2024-03-22T05:51:32;100384.81;;;10.88;62.71
49585;BME280;35491;49.142;9.210;2024-03-22T05:53:32;100374.81;;;10.90;62.71
49585;BME280;35491;49.142;9.210;2024-03-22T05:55:33;100379.31;;;10.80;63.51
49585;BME280;35491;49.142;9.210;2024-03-22T05:57:33;100382.81;;;10.70;63.71
49585;BME280;35491;49.142;9.210;2024-03-22T05:59:34;100374.78;;;10.70;63.79
49585;BME280;35491;49.142;9.210;2024-03-22T06:01:34;100380.00;;;10.62;64.29
49585;BME280;35491;49.142;9.210;2024-03-22T06:03:34;100381.63;;;10.53;64.36
49585;BME280;35491;49.142;9.210;2024-03-22T06:05:35;100382.25;;;10.57;64.77
49585;BME280;35491;49.142;9.210;2024-03-22T06:07:35;100388.41;;;10.48;65.09
49585;BME280;35491;49.142;9.210;2024-03-22T06:09:40;100379.63;;;10.76;64.37
49585;BME280;35491;49.142;9.210;2024-03-22T06:11:46;100376.22;;;10.74;64.80
49585;BME280;35491;49.142;9.210;2024-03-22T06:13:47;100379.34;;;10.99;64.15
49585;BME280;35491;49.142;9.210;2024-03-22T06:15:50;100381.75;;;11.02;63.74
49585;BME280;35491;49.142;9.210;2024-03-22T06:17:51;100380.75;;;10.93;63.93
49585;BME280;35491;49.142;9.210;2024-03-22T06:19:51;100380.88;;;10.92;64.10
49585;BME280;35491;49.142;9.210;2024-03-22T06:21:51;100377.50;;;10.90;64.20
49585;BME280;35491;49.142;9.210;2024-03-22T06:23:52;100372.16;;;10.80;64.37
49585;BME280;35491;49.142;9.210;2024-03-22T06:25:53;100374.41;;;10.95;64.40
49585;BME280;35491;49.142;9.210;2024-03-22T06:27:54;100367.94;;;10.87;64.44
49585;BME280;35491;49.142;9.210;2024-03-22T06:29:54;100378.53;;;11.18;64.08
49585;BME280;35491;49.142;9.210;2024-03-22T06:31:54;100374.03;;;11.29;63.68
49585;BME280;35491;49.142;9.210;2024-03-22T06:33:55;100369.06;;;11.44;63.21
49585;BME280;35491;49.142;9.210;2024-03-22T06:36:02;100374.81;;;11.59;62.74
49585;BME280;35491;49.142;9.210;2024-03-22T06:38:03;100373.41;;;11.64;62.81
49585;BME280;35491;49.142;9.210;2024-03-22T06:40:04;100371.28;;;11.68;62.59
49585;BME280;35491;49.142;9.210;2024-03-22T06:42:05;100361.69;;;11.75;62.00
49585;BME280;35491;49.142;9.210;2024-03-22T06:44:05;100362.72;;;11.54;63.03
49585;BME280;35491;49.142;9.210;2024-03-22T06:46:06;100370.00;;;11.72;62.33
49585;BME280;35491;49.142;9.210;2024-03-22T06:48:07;100361.25;;;11.80;62.06
49585;BME280;35491;49.142;9.210;2024-03-22T06:50:07;100361.06;;;11.91;61.55
49585;BME280;35491;49.142;9.210;2024-03-22T06:52:07;100354.16;;;11.89;61.16
49585;BME280;35491;49.142;9.210;2024-03-22T06:54:08;100347.28;;;11.86;61.62
49585;BME280;35491;49.142;9.210;2024-03-22T06:56:08;100348.47;;;11.64;62.01
49585;BME280;35491;49.142;9.210;2024-03-22T06:58:09;100345.38;;;11.49;62.92
49585;BME280;35491;49.142;9.210;2024-03-22T07:00:09;100342.28;;;11.44;63.27
49585;BME280;35491;49.142;9.210;2024-03-22T07:02:10;100345.13;;;11.52;63.02
49585;BME280;35491;49.142;9.210;2024-03-22T07:04:10;100343.25;;;11.52;63.47
49585;BME280;35491;49.142;9.210;2024-03-22T07:06:11;100344.97;;;11.44;63.62
49585;BME280;35491;49.142;9.210;2024-03-22T07:08:11;100352.84;;;11.35;64.10
49585;BME280;35491;49.142;9.210;2024-03-22T07:10:11;100343.97;;;11.45;64.20
49585;BME280;35491;49.142;9.210;2024-03-22T07:12:12;100334.41;;;11.52;64.36
49585;BME280;35491;49.142;9.210;2024-03-22T07:14:12;100333.69;;;11.50;64.36
49585;BME280;35491;49.142;9.210;2024-03-22T07:16:12;100334.38;;;11.62;64.03
49585;BME280;35491;49.142;9.210;2024-03-22T07:18:13;100332.34;;;11.74;63.46
49585;BME280;35491;49.142;9.210;2024-03-22T07:20:14;100336.03;;;11.73;63.53
49585;BME280;35491;49.142;9.210;2024-03-22T07:22:14;100337.06;;;12.09;62.94
49585;BME280;35491;49.142;9.210;2024-03-22T07:24:14;100345.72;;;12.31;62.14
49585;BME280;35491;49.142;9.210;2024-03-22T07:26:15;100332.16;;;12.32;61.92
49585;BME280;35491;49.142;9.210;2024-03-22T07:28:15;100333.41;;;12.10;62.40
49585;BME280;35491;49.142;9.210;2024-03-22T07:30:16;100330.00;;;12.08;62.64
49585;BME280;35491;49.142;9.210;2024-03-22T07:32:16;100328.13;;;12.19;62.51
49585;BME280;35491;49.142;9.210;2024-03-22T07:34:16;100333.31;;;12.30;62.44
49585;BME280;35491;49.142;9.210;2024-03-22T07:36:17;100333.16;;;12.31;62.37
49585;BME280;35491;49.142;9.210;2024-03-22T07:38:17;100329.56;;;12.41;61.96
49585;BME280;35491;49.142;9.210;2024-03-22T07:40:18;100329.69;;;12.67;61.62
49585;BME280;35491;49.142;9.210;2024-03-22T07:42:18;100333.28;;;12.76;61.48
49585;BME280;35491;49.142;9.210;2024-03-22T07:44:18;100323.41;;;12.76;61.43
49585;BME280;35491;49.142;9.210;2024-03-22T07:46:20;100324.03;;;13.06;60.77
49585;BME280;35491;49.142;9.210;2024-03-22T07:48:20;100319.03;;;13.30;60.08
49585;BME280;35491;49.142;9.210;2024-03-22T07:50:20;100303.97;;;13.55;59.36
49585;BME280;35491;49.142;9.210;2024-03-22T07:52:20;100307.50;;;13.55;59.46
49585;BME280;35491;49.142;9.210;2024-03-22T07:54:21;100313.13;;;13.70;59.08
49585;BME280;35491;49.142;9.210;2024-03-22T07:56:21;100302.91;;;13.74;58.84
49585;BME280;35491;49.142;9.210;2024-03-22T07:58:22;100299.72;;;14.13;57.87
49585;BME280;35491;49.142;9.210;2024-03-22T08:00:22;100301.31;;;14.32;57.17
49585;BME280;35491;49.142;9.210;2024-03-22T08:02:25;100296.13;;;14.39;57.04
49585;BME280;35491;49.142;9.210;2024-03-22T08:04:25;100295.50;;;14.54;57.07
49585;BME280;35491;49.142;9.210;2024-03-22T08:06:26;100290.44;;;14.50;56.84
49585;BME280;35491;49.142;9.210;2024-03-22T08:08:27;100294.69;;;14.70;56.19
49585;BME280;35491;49.142;9.210;2024-03-22T08:10:27;100287.44;;;14.54;56.81
49585;BME280;35491;49.142;9.210;2024-03-22T08:12:28;100293.88;;;14.69;56.51
49585;BME280;35491;49.142;9.210;2024-03-22T08:14:28;100292.53;;;14.81;56.05
49585;BME280;35491;49.142;9.210;2024-03-22T08:16:29;100291.19;;;14.94;55.81
49585;BME280;35491;49.142;9.210;2024-03-22T08:18:29;100284.81;;;15.03;55.66
49585;BME280;35491;49.142;9.210;2024-03-22T08:20:29;100282.44;;;15.25;54.97
49585;BME280;35491;49.142;9.210;2024-03-22T08:22:32;100285.16;;;15.17;55.33
49585;BME280;35491;49.142;9.210;2024-03-22T08:24:32;100283.81;;;15.29;54.79
49585;BME280;35491;49.142;9.210;2024-03-22T08:26:33;100275.34;;;15.49;54.22
49585;BME280;35491;49.142;9.210;2024-03-22T08:28:34;100278.28;;;15.79;53.50
49585;BME280;35491;49.142;9.210;2024-03-22T08:30:37;100272.94;;;15.62;53.72
49585;BME280;35491;49.142;9.210;2024-03-22T08:32:37;100274.59;;;15.88;53.12
49585;BME280;35491;49.142;9.210;2024-03-22T08:34:37;100270.22;;;15.87;53.03
49585;BME280;35491;49.142;9.210;2024-03-22T08:36:41;100267.38;;;15.72;52.66
49585;BME280;35491;49.142;9.210;2024-03-22T08:38:41;100265.06;;;16.09;51.83
49585;BME280;35491;49.142;9.210;2024-03-22T08:40:41;100251.31;;;15.95;51.83
49585;BME280;35491;49.142;9.210;2024-03-22T08:42:42;100250.84;;;15.92;51.73
49585;BME280;35491;49.142;9.210;2024-03-22T08:44:42;100251.44;;;16.02;51.32
49585;BME280;35491;49.142;9.210;2024-03-22T08:46:44;100251.38;;;16.18;50.94
49585;BME280;35491;49.142;9.210;2024-03-22T08:48:45;100254.25;;;16.17;50.85
49585;BME280;35491;49.142;9.210;2024-03-22T08:50:45;100244.75;;;16.29;50.50
49585;BME280;35491;49.142;9.210;2024-03-22T08:52:46;100246.75;;;16.59;49.91
49585;BME280;35491;49.142;9.210;2024-03-22T08:54:46;100248.44;;;16.28;50.11
49585;BME280;35491;49.142;9.210;2024-03-22T08:56:46;100247.34;;;16.46;49.95
49585;BME280;35491;49.142;9.210;2024-03-22T08:58:46;100249.94;;;16.62;49.35
49585;BME280;35491;49.142;9.210;2024-03-22T09:00:47;100238.91;;;16.95;48.92
49585;BME280;35491;49.142;9.210;2024-03-22T09:02:47;100243.50;;;16.87;48.95
49585;BME280;35491;49.142;9.210;2024-03-22T09:04:47;100235.94;;;17.05;48.88
49585;BME280;35491;49.142;9.210;2024-03-22T09:06:48;100231.66;;;17.11;48.43
49585;BME280;35491;49.142;9.210;2024-03-22T09:08:48;100226.56;;;17.16;48.49
49585;BME280;35491;49.142;9.210;2024-03-22T09:10:48;100233.47;;;17.19;48.40
49585;BME280;35491;49.142;9.210;2024-03-22T09:12:49;100221.28;;;17.23;48.21
49585;BME280;35491;49.142;9.210;2024-03-22T09:14:49;100221.91;;;17.25;48.09
49585;BME280;35491;49.142;9.210;2024-03-22T09:16:49;100237.69;;;16.98;48.77
49585;BME280;35491;49.142;9.210;2024-03-22T09:18:50;100226.81;;;17.06;48.30
49585;BME280;35491;49.142;9.210;2024-03-22T09:20:52;100222.78;;;17.55;47.34
49585;BME280;35491;49.142;9.210;2024-03-22T09:22:52;100219.78;;;17.35;47.63
49585;BME280;35491;49.142;9.210;2024-03-22T09:24:53;100216.03;;;17.21;47.80
49585;BME280;35491;49.142;9.210;2024-03-22T09:26:54;100214.78;;;17.47;47.76
49585;BME280;35491;49.142;9.210;2024-03-22T09:28:55;100205.50;;;17.86;46.71
49585;BME280;35491;49.142;9.210;2024-03-22T09:30:55;100208.31;;;17.48;47.38
49585;BME280;35491;49.142;9.210;2024-03-22T09:32:56;100201.63;;;17.74;46.94
49585;BME280;35491;49.142;9.210;2024-03-22T09:34:57;100194.06;;;17.69;47.22
49585;BME280;35491;49.142;9.210;2024-03-22T09:36:57;100194.75;;;17.56;47.10
49585;BME280;35491;49.142;9.210;2024-03-22T09:38:57;100190.84;;;17.96;46.75
49585;BME280;35491;49.142;9.210;2024-03-22T09:40:58;100187.34;;;17.80;47.05
49585;BME280;35491;49.142;9.210;2024-03-22T09:43:01;100187.44;;;17.87;46.49
49585;BME280;35491;49.142;9.210;2024-03-22T09:45:03;100180.34;;;18.01;46.66
49585;BME280;35491;49.142;9.210;2024-03-22T09:47:03;100179.28;;;18.38;45.70
49585;BME280;35491;49.142;9.210;2024-03-22T09:49:04;100171.81;;;18.62;45.31
49585;BME280;35491;49.142;9.210;2024-03-22T09:51:04;100176.38;;;18.62;45.12
49585;BME280;35491;49.142;9.210;2024-03-22T09:53:05;100162.38;;;18.58;45.36
49585;BME280;35491;49.142;9.210;2024-03-22T09:55:06;100167.09;;;18.28;45.90
49585;BME280;35491;49.142;9.210;2024-03-22T09:57:13;100152.25;;;18.67;44.80
49585;BME280;35491;49.142;9.210;2024-03-22T09:59:15;100152.66;;;18.64;45.25
49585;BME280;35491;49.142;9.210;2024-03-22T10:01:16;100145.69;;;18.54;45.48
49585;BME280;35491;49.142;9.210;2024-03-22T10:03:17;100150.53;;;18.59;45.27
49585;BME280;35491;49.142;9.210;2024-03-22T10:05:17;100143.41;;;18.51;45.50
49585;BME280;35491;49.142;9.210;2024-03-22T10:07:18;100143.19;;;18.81;44.92
49585;BME280;35491;49.142;9.210;2024-03-22T10:09:18;100135.75;;;18.62;45.07
49585;BME280;35491;49.142;9.210;2024-03-22T10:11:19;100133.59;;;18.79;45.05
49585;BME280;35491;49.142;9.210;2024-03-22T10:13:19;100130.13;;;19.13;44.36
49585;BME280;35491;49.142;9.210;2024-03-22T10:15:20;100133.53;;;19.29;43.82
49585;BME280;35491;49.142;9.210;2024-03-22T10:17:20;100129.31;;;19.55;43.15
49585;BME280;35491;49.142;9.210;2024-03-22T10:19:21;100124.28;;;19.10;44.26
49585;BME280;35491;49.142;9.210;2024-03-22T10:21:22;100118.84;;;19.10;44.09
49585;BME280;35491;49.142;9.210;2024-03-22T10:23:22;100119.50;;;19.54;43.48
49585;BME280;35491;49.142;9.210;2024-03-22T10:25:23;100121.00;;;19.70;43.07
49585;BME280;35491;49.142;9.210;2024-03-22T10:27:23;100115.59;;;19.28;43.94
49585;BME280;35491;49.142;9.210;2024-03-22T10:29:24;100108.97;;;19.37;43.54
49585;BME280;35491;49.142;9.210;2024-03-22T10:31:24;100108.59;;;19.40;43.94